Time;durP1;ratioP1;P1;durP2;ratioP2;P2;SDS_P1;SDS_P2;PMS_P1;PMS_P2;Temp;Humidity;BMP_temperature;BMP_pressure;BME280_temperature;BME280_humidity;BME280_pressure;Samples;Min_cycle;Max_cycle;Signal;HPM_P1;HPM_P2
2022/09/17 00:00:40;;;;;;;0.00;0.00;;;9.10;99.90;;;;;;5029421;28;20609;-87
2022/09/17 00:03:07;;;;;;;0.00;0.00;;;8.30;99.90;;;;;;5047711;28;20045;-88
2022/09/17 00:05:36;;;;;;;0.88;0.70;;;8.70;99.90;;;;;;5013100;28;20038;-88
2022/09/17 00:08:04;;;;;;;0.73;0.47;;;8.10;99.90;;;;;;5043506;28;20049;-88
2022/09/17 00:10:31;;;;;;;0.68;0.68;;;8.50;99.90;;;;;;5005417;28;20057;-88
2022/09/17 00:12:57;;;;;;;0.80;0.25;;;8.30;99.90;;;;;;5007383;28;20508;-88
2022/09/17 00:15:22;;;;;;;7.88;0.43;;;8.40;99.90;;;;;;5009011;28;20110;-88
2022/09/17 00:17:56;;;;;;;0.10;0.10;;;8.40;99.90;;;;;;5012737;28;20105;-87
2022/09/17 00:20:22;;;;;;;0.10;0.10;;;8.30;99.90;;;;;;5010036;28;20057;-87
2022/09/17 00:22:47;;;;;;;0.17;0.17;;;8.40;99.90;;;;;;5008070;28;20041;-88
2022/09/17 00:25:13;;;;;;;25.02;0.93;;;8.20;99.90;;;;;;5010571;28;20080;-87
2022/09/17 00:27:39;;;;;;;0.55;0.55;;;8.20;99.90;;;;;;5010794;28;20049;-88
2022/09/17 00:30:05;;;;;;;0.52;0.52;;;7.90;99.90;;;;;;5015414;28;20209;-88
2022/09/17 00:32:31;;;;;;;0.22;0.15;;;8.30;99.90;;;;;;5046924;28;20041;-88
2022/09/17 00:34:57;;;;;;;6.35;0.85;;;8.30;99.90;;;;;;5045458;28;20037;-87
2022/09/17 00:37:22;;;;;;;0.65;0.43;;;8.30;99.90;;;;;;5029679;28;20038;-88
2022/09/17 00:39:48;;;;;;;13.75;1.10;;;8.40;99.90;;;;;;5046858;28;20103;-87
2022/09/17 00:42:16;;;;;;;3.17;0.35;;;8.50;99.90;;;;;;5007975;28;20065;-87
2022/09/17 00:44:46;;;;;;;0.20;0.20;;;8.70;99.90;;;;;;5008882;28;20045;-88
2022/09/17 00:47:29;;;;;;;2.55;1.00;;;8.90;99.90;;;;;;5043199;28;20041;-86
2022/09/17 00:50:03;;;;;;;0.00;0.00;;;9.00;99.90;;;;;;5021797;28;20049;-87
2022/09/17 00:52:34;;;;;;;35.63;1.35;;;8.90;99.90;;;;;;5037095;28;20129;-86
2022/09/17 00:55:14;;;;;;;0.00;0.00;;;8.90;99.90;;;;;;5006363;28;20077;-87
2022/09/17 00:57:42;;;;;;;0.03;0.03;;;8.80;99.90;;;;;;5022673;28;20053;-87
2022/09/17 01:00:08;;;;;;;0.00;0.00;;;8.70;99.90;;;;;;5024093;28;20507;-87
2022/09/17 01:02:35;;;;;;;0.00;0.00;;;8.60;99.90;;;;;;5007299;28;20049;-87
2022/09/17 01:05:00;;;;;;;0.10;0.10;;;8.40;99.90;;;;;;5041308;28;20091;-87
2022/09/17 01:07:49;;;;;;;0.00;0.00;;;8.50;99.90;;;;;;5023009;28;20073;-87
2022/09/17 01:10:48;;;;;;;0.00;0.00;;;8.50;99.90;;;;;;5037737;28;20053;-87
2022/09/17 01:13:37;;;;;;;0.00;0.00;;;8.50;99.90;;;;;;5006343;28;20050;-88
2022/09/17 01:16:29;;;;;;;0.30;0.22;;;8.50;99.90;;;;;;5042380;28;20049;-87
2022/09/17 01:19:28;;;;;;;1.80;0.93;;;8.50;99.90;;;;;;5022472;28;20053;-88
2022/09/17 01:22:26;;;;;;;0.00;0.00;;;8.50;99.90;;;;;;5024794;28;20091;-87
2022/09/17 01:25:23;;;;;;;0.98;0.95;;;8.40;99.90;;;;;;4953198;28;20057;-87
2022/09/17 01:28:08;;;;;;;0.30;0.30;;;8.50;99.90;;;;;;5040338;28;20060;-87
2022/09/17 01:30:46;;;;;;;0.52;0.45;;;8.20;99.90;;;;;;5041187;28;20064;-87
2022/09/17 01:33:55;;;;;;;0.00;0.00;;;8.20;99.90;;;;;;5021285;28;20072;-87
2022/09/17 01:37:08;;;;;;;0.00;0.00;;;8.20;99.90;;;;;;5007531;28;20054;-87
2022/09/17 01:39:56;;;;;;;0.00;0.00;;;8.30;99.90;;;;;;4939608;29;20212;-88
2022/09/17 01:42:36;;;;;;;0.75;0.75;;;8.10;99.90;;;;;;5031823;28;20061;-88
2022/09/17 01:45:11;;;;;;;0.00;0.00;;;8.10;99.90;;;;;;5019119;28;20515;-87
2022/09/17 01:47:42;;;;;;;0.00;0.00;;;8.20;99.90;;;;;;5039292;28;20148;-87
2022/09/17 01:50:13;;;;;;;0.00;0.00;;;8.70;99.90;;;;;;5038907;28;20179;-87
2022/09/17 01:52:40;;;;;;;0.00;0.00;;;8.00;99.90;;;;;;5005654;28;20111;-87
2022/09/17 01:55:14;;;;;;;0.52;0.25;;;8.10;99.90;;;;;;5039037;28;20037;-87
2022/09/17 01:58:05;;;;;;;0.00;0.00;;;8.00;99.90;;;;;;5039010;28;20060;-87
2022/09/17 02:00:31;;;;;;;0.15;0.15;;;8.10;99.90;;;;;;5038958;28;20663;-87
2022/09/17 02:03:10;;;;;;;0.28;0.28;;;8.10;99.90;;;;;;5038356;28;20112;-87
2022/09/17 02:06:06;;;;;;;1.15;1.05;;;8.00;99.90;;;;;;5038548;28;20104;-87
2022/09/17 02:08:42;;;;;;;0.00;0.00;;;8.00;99.90;;;;;;5021325;28;20068;-87
2022/09/17 02:11:12;;;;;;;0.00;0.00;;;7.90;99.90;;;;;;5020354;28;20053;-88
2022/09/17 02:13:58;;;;;;;0.03;0.03;;;8.80;99.90;;;;;;5039386;28;20075;-87
2022/09/17 02:16:26;;;;;;;0.00;0.00;;;7.70;99.90;;;;;;5038758;28;20049;-87
2022/09/17 02:19:05;;;;;;;1.45;1.35;;;7.60;99.90;;;;;;5038419;28;20100;-87
2022/09/17 02:21:40;;;;;;;0.10;0.10;;;7.60;99.90;;;;;;5039720;28;20049;-88
2022/09/17 02:24:13;;;;;;;0.10;0.10;;;7.60;99.90;;;;;;5021187;28;20088;-88
2022/09/17 02:26:46;;;;;;;0.00;0.00;;;7.50;99.90;;;;;;5029514;28;20049;-86
2022/09/17 02:29:40;;;;;;;0.35;0.25;;;7.40;99.90;;;;;;5019722;28;20073;-87
2022/09/17 02:32:07;;;;;;;0.00;0.00;;;7.40;99.90;;;;;;5039268;28;20041;-88
2022/09/17 02:34:33;;;;;;;0.00;0.00;;;8.10;99.90;;;;;;5020834;28;20041;-88
2022/09/17 02:36:59;;;;;;;0.00;0.00;;;7.40;99.90;;;;;;5020959;28;20072;-88
2022/09/17 02:39:26;;;;;;;0.35;0.28;;;7.50;99.90;;;;;;5020510;28;20100;-87
2022/09/17 02:42:07;;;;;;;0.55;0.45;;;7.60;99.90;;;;;;5025464;28;20049;-87
2022/09/17 02:45:10;;;;;;;0.00;0.00;;;7.80;99.90;;;;;;5022549;28;20267;-87
2022/09/17 02:48:03;;;;;;;0.80;0.08;;;8.00;99.90;;;;;;5036471;28;20049;-87
2022/09/17 02:50:44;;;;;;;0.00;0.00;;;8.10;99.90;;;;;;5016967;28;20052;-88
2022/09/17 02:53:22;;;;;;;0.10;0.10;;;8.10;99.90;;;;;;5034370;28;20104;-87
2022/09/17 02:56:24;;;;;;;0.00;0.00;;;7.90;99.90;;;;;;5017830;28;20052;-87
2022/09/17 02:59:12;;;;;;;0.08;0.08;;;7.80;99.90;;;;;;4952943;29;20133;-87
2022/09/17 03:01:48;;;;;;;0.00;0.00;;;7.70;99.90;;;;;;5014137;28;20069;-87
2022/09/17 03:04:17;;;;;;;0.00;0.00;;;7.60;99.90;;;;;;5019533;28;20084;-87
2022/09/17 03:06:46;;;;;;;1.27;0.82;;;7.60;99.90;;;;;;5034988;28;20612;-87
2022/09/17 03:09:15;;;;;;;0.00;0.00;;;7.60;99.90;;;;;;5017081;28;20057;-87
2022/09/17 03:11:41;;;;;;;0.35;0.32;;;7.70;99.90;;;;;;5035083;28;20053;-87
2022/09/17 03:14:07;;;;;;;0.00;0.00;;;7.70;99.90;;;;;;5034775;28;20045;-87
2022/09/17 03:16:33;;;;;;;0.00;0.00;;;7.60;99.90;;;;;;5035380;28;20241;-87
2022/09/17 03:18:58;;;;;;;0.20;0.20;;;7.50;99.90;;;;;;5035198;28;20080;-87
2022/09/17 03:21:25;;;;;;;0.00;0.00;;;7.40;99.90;;;;;;5035909;28;20484;-87
2022/09/17 03:23:50;;;;;;;0.00;0.00;;;7.30;99.90;;;;;;5034167;28;20471;-87
2022/09/17 03:26:16;;;;;;;0.00;0.00;;;7.20;99.90;;;;;;5035825;28;20053;-86
2022/09/17 03:28:41;;;;;;;0.00;0.00;;;7.10;99.90;;;;;;5019192;28;20397;-87
2022/09/17 03:31:07;;;;;;;0.00;0.00;;;7.10;99.90;;;;;;5037943;28;20056;-87
2022/09/17 03:33:33;;;;;;;0.00;0.00;;;7.20;99.90;;;;;;5035731;28;20045;-87
2022/09/17 03:35:58;;;;;;;0.13;0.13;;;7.10;99.90;;;;;;5036594;28;20049;-87
2022/09/17 03:38:24;;;;;;;0.00;0.00;;;7.10;99.90;;;;;;5017775;28;20489;-87
2022/09/17 03:41:16;;;;;;;0.00;0.00;;;7.10;99.90;;;;;;5035929;28;20076;-88
2022/09/17 03:43:42;;;;;;;0.00;0.00;;;7.20;99.90;;;;;;5013463;28;20496;-88
2022/09/17 03:46:08;;;;;;;0.00;0.00;;;7.30;99.90;;;;;;5038379;28;20045;-87
2022/09/17 03:48:35;;;;;;;0.03;0.03;;;7.60;99.90;;;;;;5042087;28;20038;-86
2022/09/17 03:51:02;;;;;;;1.08;0.55;;;8.00;99.90;;;;;;5024788;28;20524;-87
2022/09/17 03:53:27;;;;;;;0.20;0.20;;;8.10;99.90;;;;;;5046056;28;20072;-87
2022/09/17 03:55:56;;;;;;;0.00;0.00;;;8.10;99.90;;;;;;5046450;28;20049;-87
2022/09/17 03:58:22;;;;;;;0.00;0.00;;;8.00;99.90;;;;;;5037341;28;20077;-87
2022/09/17 04:00:52;;;;;;;0.15;0.15;;;8.10;99.90;;;;;;5020943;28;20050;-87
2022/09/17 04:03:18;;;;;;;0.32;0.32;;;9.10;99.90;;;;;;5039684;28;20097;-87
2022/09/17 04:05:44;;;;;;;0.00;0.00;;;8.00;99.90;;;;;;5041059;28;20495;-87
2022/09/17 04:08:09;;;;;;;0.43;0.43;;;8.00;99.90;;;;;;5040993;28;20073;-87
2022/09/17 04:10:35;;;;;;;0.85;0.60;;;7.90;99.90;;;;;;5023031;28;20089;-87
2022/09/17 04:13:01;;;;;;;0.22;0.22;;;8.30;99.90;;;;;;5038218;28;20052;-87
2022/09/17 04:15:26;;;;;;;0.00;0.00;;;7.70;99.90;;;;;;5019748;28;20048;-87
2022/09/17 04:17:59;;;;;;;0.00;0.00;;;7.60;99.90;;;;;;5035584;28;20041;-87
2022/09/17 04:20:26;;;;;;;0.00;0.00;;;7.60;99.90;;;;;;5039519;28;20057;-87
2022/09/17 04:22:52;;;;;;;0.00;0.00;;;7.60;99.90;;;;;;5037314;28;20073;-87
2022/09/17 04:25:18;;;;;;;0.00;0.00;;;7.50;99.90;;;;;;5040493;28;20045;-86
2022/09/17 04:27:44;;;;;;;2.53;0.65;;;7.40;99.90;;;;;;5024886;28;20116;-86
2022/09/17 04:30:11;;;;;;;0.00;0.00;;;7.40;99.90;;;;;;5022386;28;20045;-86
2022/09/17 04:32:37;;;;;;;0.00;0.00;;;7.40;99.90;;;;;;5006425;28;20049;-86
2022/09/17 04:35:03;;;;;;;0.00;0.00;;;7.30;99.90;;;;;;5022790;28;20043;-88
2022/09/17 04:37:29;;;;;;;0.10;0.10;;;6.70;99.90;;;;;;5024769;28;20129;-87
2022/09/17 04:39:54;;;;;;;0.00;0.00;;;7.20;99.90;;;;;;5026051;28;20078;-86
2022/09/17 04:42:20;;;;;;;0.00;0.00;;;7.20;99.90;;;;;;5045665;28;20041;-86
2022/09/17 04:44:46;;;;;;;0.00;0.00;;;7.40;99.90;;;;;;5045919;28;20050;-86
2022/09/17 04:47:12;;;;;;;0.45;0.45;;;7.80;99.90;;;;;;5026264;28;20523;-86
2022/09/17 04:49:37;;;;;;;0.20;0.20;;;7.40;99.90;;;;;;5042883;28;20070;-87
2022/09/17 04:52:03;;;;;;;0.00;0.00;;;7.30;99.90;;;;;;5026434;28;20045;-87
2022/09/17 04:54:29;;;;;;;0.00;0.00;;;7.30;99.90;;;;;;5025523;28;20412;-87
2022/09/17 04:56:55;;;;;;;0.00;0.00;;;7.20;99.90;;;;;;5040328;28;20050;-87
2022/09/17 04:59:20;;;;;;;0.10;0.10;;;7.20;99.90;;;;;;5037751;28;20088;-87
2022/09/17 05:01:46;;;;;;;0.00;0.00;;;7.10;99.90;;;;;;5004897;28;20519;-87
2022/09/17 05:04:11;;;;;;;1.55;0.52;;;7.10;99.90;;;;;;5022804;28;20629;-87
2022/09/17 05:06:37;;;;;;;0.00;0.00;;;7.00;99.90;;;;;;5006664;28;20042;-87
2022/09/17 05:09:03;;;;;;;0.00;0.00;;;7.00;99.90;;;;;;5022411;28;20041;-87
2022/09/17 05:11:28;;;;;;;0.00;0.00;;;7.00;99.90;;;;;;5004460;28;20388;-87
2022/09/17 05:13:54;;;;;;;0.00;0.00;;;7.00;99.90;;;;;;5024832;28;20033;-86
2022/09/17 05:16:20;;;;;;;0.00;0.00;;;7.00;99.90;;;;;;5042992;28;20407;-87
2022/09/17 05:18:47;;;;;;;0.00;0.00;;;7.00;99.90;;;;;;5025946;28;20041;-87
2022/09/17 05:21:13;;;;;;;0.00;0.00;;;7.00;99.90;;;;;;5042077;28;20060;-86
2022/09/17 05:23:41;;;;;;;0.00;0.00;;;7.00;99.90;;;;;;5039137;28;20053;-87
2022/09/17 05:26:07;;;;;;;0.00;0.00;;;7.00;99.90;;;;;;5009117;28;20080;-87
2022/09/17 05:28:33;;;;;;;0.77;0.70;;;7.20;99.90;;;;;;5026383;28;20065;-87
2022/09/17 05:30:59;;;;;;;0.08;0.08;;;7.90;99.90;;;;;;5007224;28;20057;-87
2022/09/17 05:33:26;;;;;;;0.82;0.43;;;7.30;99.90;;;;;;5024655;28;20118;-87
2022/09/17 05:35:52;;;;;;;0.00;0.00;;;7.40;99.90;;;;;;5012525;28;20073;-86
2022/09/17 05:38:18;;;;;;;0.08;0.08;;;7.50;99.90;;;;;;5024835;28;20045;-87
2022/09/17 05:40:50;;;;;;;0.00;0.00;;;7.70;99.90;;;;;;5024404;28;20037;-87
2022/09/17 05:43:15;;;;;;;0.00;0.00;;;7.90;99.90;;;;;;5007510;28;20092;-87
2022/09/17 05:45:41;;;;;;;0.00;0.00;;;8.10;99.90;;;;;;5043930;28;20075;-87
2022/09/17 05:48:11;;;;;;;0.00;0.00;;;8.30;99.90;;;;;;5011081;28;20029;-87
2022/09/17 05:50:37;;;;;;;0.00;0.00;;;9.50;99.90;;;;;;5011222;28;20054;-87
2022/09/17 05:53:09;;;;;;;0.00;0.00;;;9.60;99.90;;;;;;5042602;28;20095;-86
2022/09/17 05:55:35;;;;;;;0.32;0.32;;;8.60;99.90;;;;;;5026798;28;20812;-87
2022/09/17 05:58:07;;;;;;;1.95;0.70;;;9.00;99.90;;;;;;5010779;28;20136;-87
2022/09/17 06:00:33;;;;;;;0.30;0.30;;;9.00;99.90;;;;;;5045087;28;20045;-87
2022/09/17 06:02:59;;;;;;;0.15;0.08;;;9.60;99.90;;;;;;5027559;28;20057;-87
2022/09/17 06:05:24;;;;;;;1.65;0.63;;;9.80;99.90;;;;;;5043465;28;20105;-86
2022/09/17 06:07:50;;;;;;;0.00;0.00;;;8.90;99.90;;;;;;5011196;28;20050;-87
2022/09/17 06:10:16;;;;;;;0.10;0.10;;;8.90;99.90;;;;;;5026298;28;20073;-87
2022/09/17 06:12:42;;;;;;;0.20;0.20;;;9.50;99.90;;;;;;5026475;28;20049;-87
2022/09/17 06:15:08;;;;;;;1.65;0.98;;;8.80;99.90;;;;;;5039689;28;20502;-87
2022/09/17 06:17:35;;;;;;;0.00;0.00;;;8.80;99.90;;;;;;5037905;28;20110;-86
2022/09/17 06:20:03;;;;;;;7.38;0.30;;;8.70;99.90;;;;;;5038609;28;20049;-87
2022/09/17 06:22:30;;;;;;;0.00;0.00;;;8.70;99.90;;;;;;5024395;28;20077;-86
2022/09/17 06:24:55;;;;;;;0.00;0.00;;;8.70;99.90;;;;;;5012498;28;20052;-86
2022/09/17 06:27:21;;;;;;;0.00;0.00;;;8.50;99.90;;;;;;5012293;28;20042;-87
2022/09/17 06:29:46;;;;;;;0.00;0.00;;;8.60;99.90;;;;;;5043920;28;20124;-86
2022/09/17 06:32:14;;;;;;;0.35;0.22;;;8.50;99.90;;;;;;5024223;28;20047;-86
2022/09/17 06:34:40;;;;;;;0.00;0.00;;;8.40;99.90;;;;;;5041480;28;20049;-87
2022/09/17 06:37:06;;;;;;;1.25;1.13;;;8.40;99.90;;;;;;5038795;28;20109;-86
2022/09/17 06:39:32;;;;;;;0.65;0.65;;;8.40;99.90;;;;;;5020795;28;20053;-86
2022/09/17 06:41:58;;;;;;;0.00;0.00;;;8.30;99.90;;;;;;5019451;28;20136;-86
2022/09/17 06:44:23;;;;;;;1.27;0.57;;;8.20;99.90;;;;;;5018510;28;20105;-86
2022/09/17 06:46:50;;;;;;;0.00;0.00;;;8.80;99.90;;;;;;5002217;28;20076;-86
2022/09/17 06:49:16;;;;;;;0.32;0.32;;;8.30;99.90;;;;;;5037011;28;20111;-86
2022/09/17 06:51:42;;;;;;;0.00;0.00;;;8.50;99.90;;;;;;5035604;28;20129;-86
2022/09/17 06:54:09;;;;;;;0.00;0.00;;;8.90;99.90;;;;;;5002625;28;20050;-86
2022/09/17 06:56:35;;;;;;;0.77;0.63;;;9.40;99.90;;;;;;5001664;28;20052;-86
2022/09/17 06:59:01;;;;;;;0.00;0.00;;;9.50;99.90;;;;;;5021570;28;20077;-87
2022/09/17 07:01:27;;;;;;;1.10;0.63;;;9.40;99.90;;;;;;5042837;28;20079;-87
2022/09/17 07:03:53;;;;;;;0.00;0.00;;;9.40;99.90;;;;;;5044262;28;20073;-87
2022/09/17 07:06:19;;;;;;;0.38;0.38;;;9.30;99.90;;;;;;5040989;28;20045;-86
2022/09/17 07:08:45;;;;;;;0.03;0.03;;;9.20;99.90;;;;;;5023861;28;20060;-87
2022/09/17 07:11:12;;;;;;;8.65;0.57;;;9.10;99.90;;;;;;5039448;28;20057;-86
2022/09/17 07:13:38;;;;;;;0.00;0.00;;;9.00;99.90;;;;;;5005901;28;20049;-88
2022/09/17 07:16:05;;;;;;;0.00;0.00;;;9.00;99.90;;;;;;5035354;28;20137;-87
2022/09/17 07:18:31;;;;;;;0.28;0.28;;;9.00;99.90;;;;;;5021794;28;20397;-88
2022/09/17 07:20:59;;;;;;;0.00;0.00;;;9.10;99.90;;;;;;5039174;28;20050;-88
2022/09/17 07:23:27;;;;;;;0.00;0.00;;;9.20;99.90;;;;;;5002856;28;20128;-88
2022/09/17 07:26:05;;;;;;;0.70;0.13;;;9.30;99.90;;;;;;5006552;28;20257;-88
2022/09/17 07:28:34;;;;;;;0.00;0.00;;;9.60;99.90;;;;;;5042032;28;20053;-88
2022/09/17 07:31:04;;;;;;;0.73;0.73;;;9.90;99.90;;;;;;5020103;28;20055;-88
2022/09/17 07:33:30;;;;;;;0.00;0.00;;;10.10;99.90;;;;;;5021632;28;20129;-88
2022/09/17 07:35:58;;;;;;;0.47;0.32;;;10.50;99.90;;;;;;5037152;28;20076;-88
2022/09/17 07:38:25;;;;;;;0.00;0.00;;;9.70;99.90;;;;;;5022162;28;20081;-88
2022/09/17 07:40:59;;;;;;;0.57;0.57;;;9.70;99.90;;;;;;5035413;28;20065;-88
2022/09/17 07:43:31;;;;;;;1.23;1.15;;;9.70;99.90;;;;;;5037095;28;20057;-88
2022/09/17 07:45:58;;;;;;;0.57;0.32;;;10.10;99.90;;;;;;5034358;28;20053;-88
2022/09/17 07:48:24;;;;;;;0.00;0.00;;;9.90;99.90;;;;;;5017950;28;20045;-88
2022/09/17 07:50:50;;;;;;;0.05;0.05;;;10.10;99.90;;;;;;5040594;28;20083;-87
2022/09/17 07:53:17;;;;;;;0.00;0.00;;;10.20;99.90;;;;;;5033918;28;20056;-88
2022/09/17 07:55:53;;;;;;;0.52;0.30;;;10.30;99.90;;;;;;5014087;28;20132;-88
2022/09/17 07:58:21;;;;;;;0.00;0.00;;;10.30;99.90;;;;;;5037253;28;20144;-88
2022/09/17 08:00:47;;;;;;;0.00;0.00;;;10.40;99.90;;;;;;5016569;28;20049;-89
2022/09/17 08:03:13;;;;;;;0.00;0.00;;;10.50;99.90;;;;;;5015447;28;20416;-88
2022/09/17 08:05:39;;;;;;;4.00;0.40;;;11.20;99.90;;;;;;5038675;28;20053;-85
2022/09/17 08:08:04;;;;;;;0.20;0.10;;;10.80;99.90;;;;;;5022393;28;20054;-86
2022/09/17 08:10:30;;;;;;;0.35;0.32;;;11.10;99.90;;;;;;5039498;28;20067;-86
2022/09/17 08:12:57;;;;;;;0.00;0.00;;;11.30;99.90;;;;;;5039201;28;20080;-88
2022/09/17 08:15:24;;;;;;;0.00;0.00;;;11.30;99.90;;;;;;5037743;28;20064;-86
2022/09/17 08:17:50;;;;;;;0.10;0.10;;;11.20;99.90;;;;;;5037627;28;20131;-87
2022/09/17 08:20:17;;;;;;;0.00;0.00;;;11.00;99.90;;;;;;5016516;28;20561;-86
2022/09/17 08:22:42;;;;;;;0.65;0.47;;;11.20;99.90;;;;;;5014914;28;20107;-87
2022/09/17 08:25:09;;;;;;;0.85;0.85;;;11.30;99.90;;;;;;5011459;28;20080;-85
2022/09/17 08:27:37;;;;;;;0.35;0.15;;;10.90;99.90;;;;;;5031060;28;20052;-86
2022/09/17 08:30:04;;;;;;;0.00;0.00;;;10.50;99.90;;;;;;5028934;28;20451;-84
2022/09/17 08:32:30;;;;;;;0.43;0.40;;;10.30;99.90;;;;;;5010507;28;20064;-85
2022/09/17 08:34:56;;;;;;;3.30;0.75;;;10.10;99.90;;;;;;5029385;28;20042;-85
2022/09/17 08:37:29;;;;;;;1.80;0.20;;;9.90;99.90;;;;;;5120175;27;20398;-76
2022/09/17 08:39:56;;;;;;;0.00;0.00;;;9.90;99.90;;;;;;5113595;27;20811;-75
2022/09/17 08:42:40;;;;;;;0.00;0.00;;;10.10;99.90;;;;;;5099609;28;20560;-76
2022/09/17 08:45:18;;;;;;;0.20;0.20;;;10.60;99.90;;;;;;5112180;28;20315;-76
2022/09/17 08:47:47;;;;;;;0.00;0.00;;;11.30;99.90;;;;;;5099920;28;20052;-75
2022/09/17 08:50:26;;;;;;;0.10;0.10;;;11.80;99.90;;;;;;5100114;28;20213;-74
2022/09/17 08:53:25;;;;;;;0.00;0.00;;;11.80;99.90;;;;;;5099791;28;20055;-74
2022/09/17 08:56:10;;;;;;;0.30;0.20;;;11.50;99.90;;;;;;5099885;28;20191;-74
2022/09/17 08:58:55;;;;;;;0.30;0.22;;;12.00;99.90;;;;;;5100102;28;20052;-75
2022/09/17 09:01:30;;;;;;;0.10;0.10;;;12.80;99.90;;;;;;5100457;28;20048;-75
2022/09/17 09:04:10;;;;;;;0.00;0.00;;;13.00;99.90;;;;;;5100413;28;20569;-73
2022/09/17 09:06:43;;;;;;;0.00;0.00;;;12.60;99.90;;;;;;5100213;28;20135;-74
2022/09/17 09:09:19;;;;;;;0.00;0.00;;;12.20;99.90;;;;;;5101338;28;20390;-76
2022/09/17 09:11:48;;;;;;;0.00;0.00;;;11.80;99.90;;;;;;5100073;28;20039;-75
2022/09/17 09:14:28;;;;;;;0.00;0.00;;;11.70;99.90;;;;;;5099201;28;20067;-75
2022/09/17 09:16:55;;;;;;;0.00;0.00;;;11.40;99.90;;;;;;5099510;28;20056;-73
2022/09/17 09:19:41;;;;;;;0.00;0.00;;;11.20;99.90;;;;;;5098081;28;20849;-76
2022/09/17 09:22:29;;;;;;;0.00;0.00;;;11.20;99.90;;;;;;5097872;28;20051;-74
2022/09/17 09:25:23;;;;;;;0.00;0.00;;;12.30;99.90;;;;;;5097485;28;20040;-75
2022/09/17 09:28:10;;;;;;;0.00;0.00;;;12.80;99.90;;;;;;5097956;28;20047;-76
2022/09/17 09:30:46;;;;;;;0.65;0.25;;;12.50;99.90;;;;;;5098672;28;20090;-75
2022/09/17 09:33:18;;;;;;;0.15;0.15;;;12.00;99.90;;;;;;5099478;28;20090;-76
2022/09/17 09:35:44;;;;;;;0.10;0.05;;;11.50;99.90;;;;;;5098512;28;20130;-75
2022/09/17 09:38:09;;;;;;;0.00;0.00;;;11.30;99.90;;;;;;5098266;28;20083;-74
2022/09/17 09:40:40;;;;;;;0.00;0.00;;;11.10;99.90;;;;;;5098443;28;20082;-75
2022/09/17 09:43:37;;;;;;;4.95;0.82;;;11.10;99.90;;;;;;5097621;28;20047;-75
2022/09/17 09:46:31;;;;;;;0.00;0.00;;;11.50;99.90;;;;;;5095881;28;20509;-74
2022/09/17 09:49:15;;;;;;;0.82;0.82;;;11.80;99.90;;;;;;5084279;28;20434;-75
2022/09/17 09:51:51;;;;;;;0.00;0.00;;;11.20;99.90;;;;;;5082882;28;20494;-75
2022/09/17 09:54:40;;;;;;;0.00;0.00;;;10.80;99.90;;;;;;5082387;28;20089;-75
2022/09/17 09:57:20;;;;;;;0.00;0.00;;;10.60;99.90;;;;;;5082645;28;20648;-75
2022/09/17 09:59:45;;;;;;;0.08;0.08;;;10.50;99.90;;;;;;5082252;28;20406;-76
2022/09/17 10:02:11;;;;;;;0.65;0.65;;;10.70;99.90;;;;;;5081760;28;20044;-74
2022/09/17 10:04:37;;;;;;;0.30;0.20;;;10.80;99.90;;;;;;5082888;28;20524;-75
2022/09/17 10:07:09;;;;;;;0.90;0.65;;;11.20;99.90;;;;;;5084443;28;20047;-74
2022/09/17 10:09:37;;;;;;;0.00;0.00;;;11.60;99.90;;;;;;5084455;28;20055;-76
2022/09/17 10:12:09;;;;;;;0.30;0.30;;;11.90;99.90;;;;;;5082271;28;20097;-75
2022/09/17 10:14:37;;;;;;;0.00;0.00;;;12.00;99.90;;;;;;5082228;28;20056;-76
2022/09/17 10:17:12;;;;;;;0.17;0.17;;;12.60;99.90;;;;;;5084104;28;20044;-75
2022/09/17 10:19:38;;;;;;;0.05;0.05;;;12.90;99.90;;;;;;5085324;28;20086;-75
2022/09/17 10:22:34;;;;;;;0.00;0.00;;;13.10;99.90;;;;;;5083856;28;20063;-75
2022/09/17 10:25:01;;;;;;;0.00;0.00;;;13.20;99.90;;;;;;5082681;28;20056;-75
2022/09/17 10:27:28;;;;;;;0.00;0.00;;;13.80;99.90;;;;;;5084105;28;20044;-75
2022/09/17 10:30:15;;;;;;;1.02;0.57;;;14.00;99.90;;;;;;5082434;28;20040;-76
2022/09/17 10:32:42;;;;;;;0.10;0.10;;;14.20;99.90;;;;;;5081658;28;20535;-74
2022/09/17 10:35:13;;;;;;;0.13;0.13;;;14.20;99.90;;;;;;5084244;28;20075;-75
2022/09/17 10:37:46;;;;;;;0.35;0.17;;;13.90;99.90;;;;;;5092923;28;20055;-77
2022/09/17 10:40:18;;;;;;;2.10;1.05;;;13.00;99.90;;;;;;5090123;28;20069;-77
2022/09/17 10:42:48;;;;;;;0.80;0.47;;;12.10;99.90;;;;;;5093910;28;20486;-77
2022/09/17 10:45:28;;;;;;;0.03;0.03;;;11.20;99.90;;;;;;5092819;28;20138;-78
2022/09/17 10:47:55;;;;;;;0.30;0.30;;;10.80;99.90;;;;;;5089692;28;20048;-76
2022/09/17 10:50:31;;;;;;;0.65;0.52;;;10.60;99.90;;;;;;5084906;28;20040;-76
2022/09/17 10:53:01;;;;;;;0.00;0.00;;;10.50;99.90;;;;;;5083199;28;20040;-75
2022/09/17 10:56:06;;;;;;;0.00;0.00;;;10.90;99.90;;;;;;5083754;28;20079;-74
2022/09/17 10:58:53;;;;;;;0.43;0.43;;;11.30;99.90;;;;;;5083601;28;20056;-75
2022/09/17 11:02:00;;;;;;;0.20;0.20;;;11.20;99.90;;;;;;5083557;28;20593;-76
2022/09/17 11:05:01;;;;;;;0.00;0.00;;;11.30;99.90;;;;;;5097872;28;20095;-75
2022/09/17 11:07:53;;;;;;;0.17;0.17;;;11.70;99.90;;;;;;5080893;28;20193;-75
2022/09/17 11:10:51;;;;;;;0.08;0.08;;;11.70;99.90;;;;;;5081767;28;20616;-75
2022/09/17 11:13:29;;;;;;;0.00;0.00;;;11.50;99.90;;;;;;5086040;28;20513;-74
2022/09/17 11:16:13;;;;;;;0.80;0.40;;;11.20;99.90;;;;;;5096666;28;20127;-76
2022/09/17 11:18:42;;;;;;;0.13;0.08;;;11.30;99.90;;;;;;5080860;28;20051;-75
2022/09/17 11:21:17;;;;;;;0.00;0.00;;;11.60;99.90;;;;;;5081288;28;20127;-75
2022/09/17 11:24:04;;;;;;;1.17;0.75;;;12.00;99.90;;;;;;5097113;28;20047;-75
2022/09/17 11:26:43;;;;;;;0.35;0.30;;;12.30;99.90;;;;;;5088277;28;20513;-74
2022/09/17 11:29:53;;;;;;;0.15;0.15;;;13.00;99.90;;;;;;5084933;28;20048;-75
2022/09/17 11:32:46;;;;;;;4.13;0.47;;;13.60;99.90;;;;;;5073989;28;20125;-74
2022/09/17 11:35:18;;;;;;;0.00;0.00;;;13.30;99.90;;;;;;5084356;28;20052;-75
2022/09/17 11:38:19;;;;;;;0.13;0.13;;;12.70;99.90;;;;;;5083173;28;20055;-75
2022/09/17 11:41:10;;;;;;;0.63;0.38;;;12.50;99.90;;;;;;5082638;28;20054;-73
2022/09/17 11:43:58;;;;;;;0.80;0.70;;;12.30;99.90;;;;;;5098801;28;20043;-75
2022/09/17 11:46:29;;;;;;;0.00;0.00;;;12.60;99.90;;;;;;5092600;28;20048;-75
2022/09/17 11:49:04;;;;;;;0.15;0.15;;;13.00;99.90;;;;;;5082275;28;20530;-74
2022/09/17 11:51:37;;;;;;;0.05;0.05;;;12.90;99.90;;;;;;5084514;28;20174;-74
2022/09/17 11:54:29;;;;;;;0.03;0.03;;;13.20;99.90;;;;;;5084111;28;20104;-76
2022/09/17 11:57:15;;;;;;;0.00;0.00;;;13.70;99.90;;;;;;5082472;28;20532;-74
2022/09/17 11:59:56;;;;;;;0.85;0.75;;;14.40;99.90;;;;;;5082291;28;20056;-74
2022/09/17 12:02:25;;;;;;;0.60;0.47;;;15.00;99.90;;;;;;5083506;28;20078;-76
2022/09/17 12:05:08;;;;;;;5.85;1.33;;;15.20;99.90;;;;;;5082986;28;20039;-75
2022/09/17 12:07:40;;;;;;;0.30;0.30;;;14.90;99.90;;;;;;5085266;28;20151;-73
2022/09/17 12:10:21;;;;;;;1.02;0.55;;;14.30;99.90;;;;;;5081103;28;20071;-74
2022/09/17 12:12:58;;;;;;;0.52;0.20;;;13.90;99.90;;;;;;5081856;28;20048;-76
2022/09/17 12:15:27;;;;;;;2.17;0.30;;;13.70;99.90;;;;;;5083021;28;20052;-75
2022/09/17 12:18:22;;;;;;;1.23;0.75;;;13.40;99.90;;;;;;5082745;28;20080;-75
2022/09/17 12:20:52;;;;;;;0.47;0.32;;;13.60;99.90;;;;;;5084163;28;20048;-76
2022/09/17 12:23:30;;;;;;;4.22;0.70;;;14.30;99.90;;;;;;5083494;28;20131;-75
2022/09/17 12:26:07;;;;;;;0.88;0.60;;;14.70;99.90;;;;;;5082998;28;20056;-75
2022/09/17 12:28:47;;;;;;;0.00;0.00;;;14.90;99.90;;;;;;5084283;28;20044;-75
2022/09/17 12:31:27;;;;;;;0.10;0.10;;;15.30;99.90;;;;;;5083024;28;20402;-75
2022/09/17 12:34:26;;;;;;;0.35;0.28;;;15.70;99.90;;;;;;5084332;28;20051;-74
2022/09/17 12:37:23;;;;;;;0.10;0.10;;;15.60;99.90;;;;;;5081993;28;20159;-75
2022/09/17 12:39:59;;;;;;;0.35;0.35;;;14.60;99.90;;;;;;5080355;28;20108;-75
2022/09/17 12:42:48;;;;;;;3.10;1.15;;;14.90;99.90;;;;;;5082621;28;20040;-74
2022/09/17 12:45:31;;;;;;;2.33;0.82;;;15.40;99.90;;;;;;5082409;28;20248;-75
2022/09/17 12:48:06;;;;;;;0.75;0.30;;;14.80;99.90;;;;;;5082278;28;20052;-75
2022/09/17 12:50:59;;;;;;;2.45;0.43;;;15.00;99.90;;;;;;5081014;28;20405;-74
2022/09/17 12:53:38;;;;;;;0.00;0.00;;;15.60;99.90;;;;;;5081484;28;20436;-76
2022/09/17 12:56:18;;;;;;;0.00;0.00;;;16.30;99.90;;;;;;5080265;28;20486;-74
2022/09/17 12:58:59;;;;;;;0.10;0.10;;;16.50;99.90;;;;;;5080017;28;20394;-74
2022/09/17 13:01:35;;;;;;;6.82;0.45;;;16.80;99.90;;;;;;5092606;28;20420;-75
2022/09/17 13:04:06;;;;;;;1.83;0.32;;;16.80;99.90;;;;;;5078672;28;20970;-74
2022/09/17 13:06:56;;;;;;;1.00;0.45;;;17.60;99.90;;;;;;5079725;28;20502;-75
2022/09/17 13:09:49;;;;;;;0.00;0.00;;;17.60;99.90;;;;;;5079546;28;20485;-75
2022/09/17 13:12:39;;;;;;;0.22;0.22;;;16.70;99.90;;;;;;5078090;28;20459;-75
2022/09/17 13:15:35;;;;;;;0.10;0.10;;;15.70;99.90;;;;;;5079583;28;20036;-75
2022/09/17 13:18:11;;;;;;;2.22;0.55;;;16.00;99.90;;;;;;5078723;28;20053;-75
2022/09/17 13:20:56;;;;;;;;;;;16.60;99.90;;;;;;5079927;28;20056;-76
2022/09/17 13:23:43;;;;;;;0.55;0.45;;;16.90;99.90;;;;;;5081198;28;20023;-75
2022/09/17 13:26:12;;;;;;;0.43;0.28;;;17.50;99.90;;;;;;5098302;28;20510;-75